Home / Local Weather & Traffic / California / Grapevine Past Weather

Grapevine, CA Past Weather

Last 30 Days

 
High: 65ºf @5:13 PM    Low: 50ºf @6:13 AM     Approx. Precipitation / Rain Total: 0 in.
Time (PDT)Temp. (ºf)Humidity (%)Dew Point (ºf)Barometer (inHG)Wind Speed (mph)Wind DirectionWind Gust (mph)1hr. Precip / Rain Total (in.)Snow Depth
10:13 PM573831.65-9.56wnw16.51--
8:13 PM573529.62-7.82w11.3--
5:13 PM652629.28-6.95wsw13.03--
3:13 PM643435.07-7.82wsw14.77--
2:13 PM633333.44-8.69wsw13.03--
11:13 AM603632.97-6.95wsw9.56--
9:13 AM613734.54-2.61wsw7.82--
8:13 AM564534.96-3.48wsw7.82--
7:13 AM514530.41-6.08wsw9.56--
6:13 AM504428.95-4.34wsw6.08--
5:13 AM514731.49-6.08wsw6.95--
2:13 AM504026.64-5.21wsw6.95--
1:13 AM514128.14-4.34wsw7.82--
12:13 AM513826.3-4.34wsw6.08--
High: 63ºf @2:13 PM    Low: 42ºf @4:13 AM     Approx. Precipitation / Rain Total: 0 in.
Time (PDT)Temp. (ºf)Humidity (%)Dew Point (ºf)Barometer (inHG)Wind Speed (mph)Wind DirectionWind Gust (mph)1hr. Precip / Rain Total (in.)Snow Depth
11:13 PM523927.82-4.34wsw6.95--
10:13 PM523625.88-5.21w6.95--
9:13 PM533526.09-3.48wsw6.08--
8:13 PM533425.39-4.34wsw6.95--
7:13 PM563025.01-6.08wsw10.43--
2:13 PM631413.07-9.56e19.12--
12:13 PM611411.48-13.03ene23.46--
10:13 AM551913.52-12.17e19.12--
9:13 AM512516.43-11.3ene14.77--
7:13 AM433215.18-10.43ene16.51--
5:13 AM423214.3-12.17ene17.38--
4:13 AM423717.64-14.77ene19.12--
3:13 AM444524.04-6.95ene7.82--
2:13 AM444423.5-4.34wnw6.08--
1:13 AM444222.4-4.34wnw7.82--
12:13 AM444121.83-4.34wnw7.82--
High: 55ºf @3:13 PM    Low: 38ºf @6:13 AM     Approx. Precipitation / Rain Total: 0 in.
Time (PDT)Temp. (ºf)Humidity (%)Dew Point (ºf)Barometer (inHG)Wind Speed (mph)Wind DirectionWind Gust (mph)1hr. Precip / Rain Total (in.)Snow Depth
10:13 PM453921.55-6.95wnw16.51--
9:13 PM473923.34-11.3wnw16.51--
8:13 PM473923.34-13.03wnw20.86--
7:13 PM503724.76-14.77wnw24.33--
6:13 PM523927.82-12.17wnw19.99--
5:13 PM543224.82-10.43wnw21.72--
3:13 PM553427.15-11.3wnw18.25--
2:13 PM544432.58-9.56wnw18.25--
1:13 PM524732.4-11.3wnw19.99--
10:13 AM467839.53-11.3wnw18.25--
8:13 AM418737.43-11.3wnw18.25--
6:13 AM388132.7-12.17wnw21.72--
5:13 AM397732.41-13.03wnw19.12--
1:13 AM456835.08-16.51wnw22.59--
12:13 AM456132.37-15.64wnw25.2--
High: 54ºf @5:13 PM    Low: 43ºf @8:13 AM     Approx. Precipitation / Rain Total: 0 in.
Time (PDT)Temp. (ºf)Humidity (%)Dew Point (ºf)Barometer (inHG)Wind Speed (mph)Wind DirectionWind Gust (mph)1hr. Precip / Rain Total (in.)Snow Depth
11:13 PM475431.23-16.51wnw26.94--
10:13 PM475330.77-16.51wnw23.46--
9:13 PM487239.41-16.51wnw23.46--
8:13 PM488844.62-15.64wnw25.2--
7:13 PM507040.61-15.64wnw24.33--
6:13 PM517041.56-13.9wnw26.07--
5:13 PM546341.69-14.77wnw23.46--
3:13 PM538147.33-12.17wnw22.59--
2:13 PM4810048-9.56wnw20.86--
1:13 PM4510045-12.17wnw18.25--
12:13 PM4510045-8.69wnw13.9--
11:13 AM4410044-6.95wnw17.38--
8:13 AM4310043-13.03wnw21.72--
7:13 AM4410044-13.9wnw20.86--
6:13 AM4510045-12.17wnw18.25--
4:13 AM4610046-10.43wnw19.12--
2:13 AM4810048-13.9wnw21.72--
1:13 AM4910049-15.64wnw21.72--
12:13 AM4910049-12.17wnw19.99--
High: 58ºf @3:13 PM    Low: 40ºf @6:13 AM     Approx. Precipitation / Rain Total: 0 in.
Time (PDT)Temp. (ºf)Humidity (%)Dew Point (ºf)Barometer (inHG)Wind Speed (mph)Wind DirectionWind Gust (mph)1hr. Precip / Rain Total (in.)Snow Depth
11:13 PM4910049-12.17wnw19.99--
10:13 PM5010050-12.17wnw20.86--
9:13 PM5110051-12.17wnw19.12--
8:13 PM5110051-12.17wnw19.12--
3:13 PM586345.47-12.17wnw22.59--
2:13 PM566444-11.3wnw19.12--
12:13 PM519248.76-9.56wnw16.51--
10:13 AM4510045-8.69wnw14.77--
7:13 AM4110041-9.56wnw13.9--
6:13 AM4010040-7.82wnw15.64--
5:13 AM4110041-8.69wnw13.9--
2:13 AM418235.93-8.69wnw15.64--
12:13 AM447135.21-6.08wnw12.17--
High: 50ºf @4:13 PM    Low: 38ºf @8:13 AM     Approx. Precipitation / Rain Total: 0 in.
Time (PDT)Temp. (ºf)Humidity (%)Dew Point (ºf)Barometer (inHG)Wind Speed (mph)Wind DirectionWind Gust (mph)1hr. Precip / Rain Total (in.)Snow Depth
11:13 PM447034.85-8.69wnw16.51--
10:13 PM446733.76-10.43wnw16.51--
7:13 PM457738.23-11.3wnw18.25--
6:13 PM476636.24-11.3wnw17.38--
5:13 PM496136.14-9.56wnw16.51--
4:13 PM506036.67-9.56wnw18.25--
2:13 PM486637.19-11.3wnw19.12--
1:13 PM478141.48-9.56wnw17.38--
10:13 AM3810038-8.69wnw16.51--
9:13 AM3810038-10.43wnw19.12--
8:13 AM3810038-10.43wnw20.86--
7:13 AM3810038-13.9wnw20.86--
5:13 AM3810038-12.17wnw19.12--
4:13 AM3910039-14.77wnw23.46--
12:13 AM4210042-10.43wnw18.25--
High: 54ºf @4:13 PM    Low: 38ºf @7:13 AM     Approx. Precipitation / Rain Total: 0 in.
Time (PDT)Temp. (ºf)Humidity (%)Dew Point (ºf)Barometer (inHG)Wind Speed (mph)Wind DirectionWind Gust (mph)1hr. Precip / Rain Total (in.)Snow Depth
11:13 PM4210042-13.03wnw20.86--
8:13 PM458641.07-11.3wnw19.12--
4:13 PM544633.69-9.56wnw19.12--
1:13 PM525536.34-11.3wnw19.12--
10:13 AM457738.23-10.43wnw16.51--
9:13 AM4010040-8.69wnw19.99--
8:13 AM429239.85-12.17wnw16.51--
7:13 AM389937.74-9.56wnw13.9--
5:13 AM3910039-9.56wnw14.77--
4:13 AM4010040-8.69wnw13.9--
3:13 AM409839.48-9.56wnw16.51--
2:13 AM437936.94-6.95w12.17--
12:13 AM455630.26-10.43w13.9--
High: 55ºf @4:13 PM    Low: 42ºf @5:13 AM     Approx. Precipitation / Rain Total: 0 in.
Time (PDT)Temp. (ºf)Humidity (%)Dew Point (ºf)Barometer (inHG)Wind Speed (mph)Wind DirectionWind Gust (mph)1hr. Precip / Rain Total (in.)Snow Depth
11:13 PM465430.3-8.69w13.9--
10:13 PM476234.66-8.69w13.03--
9:13 PM486938.32-7.82w12.17--
8:13 PM487038.69-6.08w13.03--
7:13 PM506438.31-6.95w13.03--
4:13 PM554936.19-9.56wnw14.77--
2:13 PM534632.78-8.69wnw18.25--
1:13 PM514832.01-10.43wnw16.51--
10:13 AM474727.83-8.69w13.9--
8:13 AM4310043-5.21w9.56--
7:13 AM4410044-6.08w13.03--
6:13 AM4310043-5.21w8.69--
5:13 AM4210042-6.95w10.43--
4:13 AM449843.47-4.34w11.3--
3:13 AM4410044-8.69w13.9--
2:13 AM458641.07-8.69w12.17--
1:13 AM477238.45-6.95w10.43--
12:13 AM488844.62-6.95w13.9--
High: 68ºf @9:13 AM    Low: 52ºf @12:13 AM     Approx. Precipitation / Rain Total: 0 in.
Time (PDT)Temp. (ºf)Humidity (%)Dew Point (ºf)Barometer (inHG)Wind Speed (mph)Wind DirectionWind Gust (mph)1hr. Precip / Rain Total (in.)Snow Depth
11:13 PM546542.5-9.56w13.03--
10:13 PM566444-4.34w6.95--
9:13 PM566343.58-8.69w10.43--
8:13 PM594738.8-4.34wnw6.95--
6:13 PM625344.67-6.08wsw12.17--
4:13 PM645447.02-5.21wsw11.3--
3:13 PM635747.52-6.95wsw14.77--
2:13 PM625445.16-7.82wsw10.43--
12:13 PM634943.53-5.21wsw8.69--
11:13 AM633031.08-6.08wsw8.69--
10:13 AM682833.67-3.48ese6.08--
9:13 AM683740.75-2.61ne4.34--
7:13 AM554936.19-4.34wsw6.08--
3:13 AM59138.25---3.48--
1:13 AM563125.8-1.74w6.08--
12:13 AM526942.15-6.08wnw8.69--
High: 64ºf @1:13 PM    Low: 40ºf @2:13 AM     Approx. Precipitation / Rain Total: 0 in.
Time (PDT)Temp. (ºf)Humidity (%)Dew Point (ºf)Barometer (inHG)Wind Speed (mph)Wind DirectionWind Gust (mph)1hr. Precip / Rain Total (in.)Snow Depth
11:13 PM527142.89-5.21wnw8.69--
10:13 PM526841.77-6.95w8.69--
8:13 PM546341.69-6.08w9.56--
7:13 PM576444.94-2.61w6.08--
5:13 PM566042.31-7.82w10.43--
4:13 PM605443.3-6.08wnw9.56--
3:13 PM585541.92-6.08wnw9.56--
2:13 PM594839.34-6.95wnw10.43--
1:13 PM643737.2-7.82ene13.9--
12:13 PM633635.62-11.3ene15.64--
11:13 AM604639.16-10.43ene13.03--
10:13 AM575842.37-4.34ene6.95--
9:13 AM546442.1-2.61nnw6.95--
8:13 AM496738.53-6.08w7.82--
7:13 AM427735.32-6.08w9.56--
6:13 AM447536.59-5.21w8.69--
2:13 AM408435.56-7.82w13.03--
1:13 AM418235.93-7.82w13.03--
12:13 AM428437.52-7.82wnw14.77--
High: 53ºf @6:13 PM    Low: 39ºf @6:13 AM     Approx. Precipitation / Rain Total: 0 in.
Time (PDT)Temp. (ºf)Humidity (%)Dew Point (ºf)Barometer (inHG)Wind Speed (mph)Wind DirectionWind Gust (mph)1hr. Precip / Rain Total (in.)Snow Depth
10:13 PM458540.77-9.56wnw13.9--
9:13 PM468842.65-9.56wnw13.9--
6:13 PM536842.72-5.21wnw13.9--
5:13 PM516439.26-8.69wnw17.38--
3:13 PM527243.26-10.43wnw20.86--
2:13 PM527443.97-8.69wnw20.86--
12:13 PM477238.45-9.56wnw18.25--
11:13 AM477338.8-8.69wnw15.64--
10:13 AM447937.91-7.82wnw14.77--
9:13 AM428738.42-10.43wnw15.64--
7:13 AM4010040-9.56wnw14.77--
6:13 AM3910039-10.43wnw14.77--
5:13 AM4010040-9.56wnw15.64--
3:13 AM429139.57-7.82w16.51--
2:13 AM4310043-6.95w13.03--
12:13 AM4410044-7.82w12.17--
High: 52ºf @4:13 PM    Low: 43ºf @6:13 AM     Approx. Precipitation / Rain Total: 0 in.
Time (PDT)Temp. (ºf)Humidity (%)Dew Point (ºf)Barometer (inHG)Wind Speed (mph)Wind DirectionWind Gust (mph)1hr. Precip / Rain Total (in.)Snow Depth
11:13 PM459744.2-7.82w10.43--
10:13 PM4510045-6.08w9.56--
9:13 PM4610046-6.08w10.43--
8:13 PM469845.47-6.08w9.56--
6:13 PM518446.34-6.95w13.03--
4:13 PM528748.25-6.95w14.77--
2:13 PM528246.68-8.69w13.03--
1:13 PM518646.96-7.82w11.3--
12:13 PM499647.91-6.95wnw9.56--
11:13 AM4710047-6.08w8.69--
10:13 AM4510045-5.21w10.43--
9:13 AM4310043-4.34w8.69--
8:13 AM4310043-5.21w11.3--
7:13 AM4310043-6.08w10.43--
6:13 AM4310043-6.08wsw10.43--
4:13 AM4410044-6.08wsw12.17--
3:13 AM4510045-6.08wsw12.17--
1:13 AM4610046-5.21wsw9.56--
High: 54ºf @12:13 PM    Low: 47ºf @7:13 PM     Approx. Precipitation / Rain Total: 0 in.
Time (PDT)Temp. (ºf)Humidity (%)Dew Point (ºf)Barometer (inHG)Wind Speed (mph)Wind DirectionWind Gust (mph)1hr. Precip / Rain Total (in.)Snow Depth
7:13 PM4710047-3.48wsw6.95--
4:13 PM4910049-6.95wsw11.3--
12:13 PM5410054-6.08ese10.43--
10:13 AM4910049-5.21wnw7.82--
8:13 AM519248.76-6.95ene12.17--
7:13 AM489947.73-3.48wsw8.69--
5:13 AM4710047-3.48wsw6.95--
4:13 AM4710047-4.34wsw6.08--
3:13 AM4810048-2.61wsw7.82--
2:13 AM4910049-4.34sw6.08--
1:13 AM4710047-1.74nne6.08--
12:13 AM4810048-3.48w10.43--
High: 61ºf @12:13 PM    Low: 49ºf @1:13 AM     Approx. Precipitation / Rain Total: 0 in.
Time (PDT)Temp. (ºf)Humidity (%)Dew Point (ºf)Barometer (inHG)Wind Speed (mph)Wind DirectionWind Gust (mph)1hr. Precip / Rain Total (in.)Snow Depth
10:13 PM4910049-4.34wnw6.95--
9:13 PM5010050-6.95w13.03--
8:13 PM538648.92-6.95w11.3--
7:13 PM547847.3-6.95w11.3--
3:13 PM586747.1-6.08nw9.56--
12:13 PM614841.17-5.21nnw7.82--
7:13 AM494528.59-5.21wnw6.08--
6:13 AM494629.13-2.61sw10.43--
3:13 AM49176.12-1.74wsw4.34--
1:13 AM49153.4-3.48wnw7.82--
High: 66ºf @12:13 PM    Low: 48ºf @10:13 PM     Approx. Precipitation / Rain Total: 0 in.
Time (PDT)Temp. (ºf)Humidity (%)Dew Point (ºf)Barometer (inHG)Wind Speed (mph)Wind DirectionWind Gust (mph)1hr. Precip / Rain Total (in.)Snow Depth
10:13 PM483622.33-6.08wnw10.43--
9:13 PM483219.57-6.95wnw12.17--
5:13 PM613533.15-6.95wnw12.17--
2:13 PM642527.48-7.82wnw13.03--
1:13 PM652326.3-6.95wnw11.3--
12:13 PM662932.83-5.21nnw12.17--
11:13 AM662428.17-5.21e9.56--
10:13 AM642426.49-6.08ene9.56--
8:13 AM593430.67-7.82ene9.56--
7:13 AM553628.54-5.21wsw6.08--
6:13 AM544030.23-5.21wsw6.08--
4:13 AM543828.97-4.34wsw6.95--
3:13 AM543627.66-6.08wsw6.95--
2:13 AM543526.97-5.21wsw6.95--
1:13 AM543728.32-4.34wsw6.08--
12:13 AM543828.97-6.08wsw6.95--
High: 64ºf @2:13 PM    Low: 36ºf @5:13 AM     Approx. Precipitation / Rain Total: 0 in.
Time (PDT)Temp. (ºf)Humidity (%)Dew Point (ºf)Barometer (inHG)Wind Speed (mph)Wind DirectionWind Gust (mph)1hr. Precip / Rain Total (in.)Snow Depth
11:13 PM543224.82-3.48wsw6.08--
10:13 PM553124.93-4.34sw5.21--
6:13 PM575641.46-2.61se9.56--
2:13 PM643636.51-6.95ene13.03--
1:13 PM633232.68-10.43ene13.9--
11:13 AM593128.41-11.3ene13.9--
10:13 AM562520.69-8.69ene11.3--
9:13 AM582017.17-4.34ne6.08--
7:13 AM379435.44-3.48wnw7.82--
5:13 AM368732.51-7.82w10.43--
4:13 AM368732.51-9.56w10.43--
2:13 AM368832.8-6.95w10.43--
12:13 AM366826.48-6.95w11.3--
High: 43ºf @5:13 PM    Low: 30ºf @7:13 AM     Approx. Precipitation / Rain Total: 0 in.
Time (PDT)Temp. (ºf)Humidity (%)Dew Point (ºf)Barometer (inHG)Wind Speed (mph)Wind DirectionWind Gust (mph)1hr. Precip / Rain Total (in.)Snow Depth
11:13 PM377028.14-6.95wnw12.17--
10:13 PM377329.16-7.82wnw11.3--
8:13 PM367729.5-9.56wnw13.03--
5:13 PM436933.54-8.69wnw16.51--
4:13 PM427434.32-9.56wnw15.64--
3:13 PM418035.31-8.69wnw15.64--
2:13 PM418536.84-8.69wnw14.77--
1:13 PM4010040-6.08wnw10.43--
12:13 PM3510035-6.08wnw9.56--
11:13 AM3310033-6.08wnw11.3--
10:13 AM3210032-6.95wnw12.17--
7:13 AM3010030-6.95wnw14.77--
6:13 AM3110031-8.69wnw15.64--
5:13 AM3210032-7.82wnw14.77--
4:13 AM3310033-8.69wsw14.77--
3:13 AM3310033-8.69wnw17.38--
1:13 AM3510035-10.43wnw17.38--
12:13 AM3610036-11.3wnw20.86--
High: 47ºf @5:13 PM    Low: 38ºf @11:13 PM     Approx. Precipitation / Rain Total: 0 in.
Time (PDT)Temp. (ºf)Humidity (%)Dew Point (ºf)Barometer (inHG)Wind Speed (mph)Wind DirectionWind Gust (mph)1hr. Precip / Rain Total (in.)Snow Depth
11:13 PM389235.89-8.69wsw16.51--
10:13 PM407131.37-7.82wnw17.38--
9:13 PM407031.02-5.21wnw12.17--
8:13 PM417734.35-9.56wnw14.77--
5:13 PM476033.84-8.69wnw19.12--
4:13 PM467538.53-10.43wsw14.77--
2:13 PM4310043-7.82wsw13.9--
11:13 AM478743.33-7.82wsw12.17--
8:13 AM4110041-4.34wsw6.08--
7:13 AM4010040-3.48wsw7.82--
6:13 AM4010040-3.48wsw7.82--
5:13 AM4010040-4.34wsw6.95--
4:13 AM4010040-6.08wsw8.69--
3:13 AM4210042-4.34wsw6.95--
2:13 AM4410044-1.74nw6.08--
1:13 AM4510045-3.48nnw4.34--
12:13 AM4610046-5.21nw7.82--
High: 59ºf @4:13 PM    Low: 47ºf @4:13 AM     Approx. Precipitation / Rain Total: 0 in.
Time (PDT)Temp. (ºf)Humidity (%)Dew Point (ºf)Barometer (inHG)Wind Speed (mph)Wind DirectionWind Gust (mph)1hr. Precip / Rain Total (in.)Snow Depth
4:13 PM595341.89-6.08wnw12.17--
2:13 PM585441.45-6.95wnw12.17--
1:13 PM575641.46-7.82wnw12.17--
12:13 PM575842.37-6.95wnw11.3--
10:13 AM565841.43-6.08wnw9.56--
9:13 AM565740.98-4.34w7.82--
8:13 AM556041.37-3.48w6.08--
4:13 AM476033.84-3.48wnw5.21--
1:13 AM475632.13-6.95w8.69--
High: 55ºf @12:13 PM    Low: 44ºf @1:13 AM     Approx. Precipitation / Rain Total: 0 in.
Time (PDT)Temp. (ºf)Humidity (%)Dew Point (ºf)Barometer (inHG)Wind Speed (mph)Wind DirectionWind Gust (mph)1hr. Precip / Rain Total (in.)Snow Depth
11:13 PM495332.62-6.08w7.82--
10:13 PM495332.62-4.34w5.21--
8:13 PM485231.22-3.48wnw4.34--
6:13 PM534431.68-3.48nw8.69--
4:13 PM545136.28-6.95wnw12.17--
3:13 PM515535.41-7.82wnw12.17--
2:13 PM515535.41-7.82wnw12.17--
1:13 PM514731.49-9.56w12.17--
12:13 PM553930.5-3.48w7.82--
11:13 AM505233.07-4.34sw11.3--
10:13 AM524531.32-5.21wsw8.69--
8:13 AM512314.52-6.08w7.82--
7:13 AM483521.67-3.48ne10.43--
5:13 AM483018.06-4.34ne10.43--
4:13 AM512011.36-6.95ene10.43--
3:13 AM529-5.04-6.08ne8.69--
2:13 AM508-8.97-4.34nnw6.08--
1:13 AM446031.02---6.08--
12:13 AM446332.23-4.34w6.08--
High: 49ºf @4:13 PM    Low: 34ºf @6:13 AM     Approx. Precipitation / Rain Total: 0 in.
Time (PDT)Temp. (ºf)Humidity (%)Dew Point (ºf)Barometer (inHG)Wind Speed (mph)Wind DirectionWind Gust (mph)1hr. Precip / Rain Total (in.)Snow Depth
11:13 PM437134.25-3.48wnw4.34--
10:13 PM427333.98-4.34w6.08--
8:13 PM437134.25-6.08w8.69--
7:13 PM456734.71-6.95w8.69--
5:13 PM496236.55-6.95w12.17--
4:13 PM496136.14-7.82w13.03--
3:13 PM496537.75-7.82w12.17--
1:13 PM486737.57-6.95wnw12.17--
10:13 AM455730.69-3.48wsw9.56--
6:13 AM348529.97-6.08wsw10.43--
4:13 AM358330.37-7.82wsw9.56--
3:13 AM367930.13-6.08wsw7.82--
2:13 AM367930.13-6.08wsw7.82--
1:13 AM377931.1-6.08wsw8.69--
High: 48ºf @3:13 PM    Low: 29ºf @6:13 AM     Approx. Precipitation / Rain Total: 0 in.
Time (PDT)Temp. (ºf)Humidity (%)Dew Point (ºf)Barometer (inHG)Wind Speed (mph)Wind DirectionWind Gust (mph)1hr. Precip / Rain Total (in.)Snow Depth
11:13 PM378232.03-6.08wsw9.56--
10:13 PM378232.03-5.21wsw9.56--
8:13 PM388132.7-6.08wsw10.43--
7:13 PM407934.02-6.95wsw11.3--
5:13 PM446834.13-8.69wsw11.3--
4:13 PM456835.08-6.95wsw10.43--
3:13 PM487038.69-6.08wsw9.56--
2:13 PM477338.8-5.21nw11.3--
1:13 PM467438.18-6.08ene11.3--
11:13 AM419038.3-4.34nne10.43--
10:13 AM3610036-5.21wnw8.69--
9:13 AM389135.61-3.48ene5.21--
8:13 AM3210032-2.61nnw6.95--
7:13 AM3010030-6.08wnw7.82--
6:13 AM2910029-5.21wnw8.69--
5:13 AM3010030-6.08wnw7.82--
4:13 AM299928.75-4.34wnw7.82--
3:13 AM3010030-2.61wnw7.82--
2:13 AM3010030-6.08wnw12.17--
12:13 AM318727.59-10.43wnw15.64--
High: 45ºf @1:13 AM    Low: 31ºf @11:13 PM     Approx. Precipitation / Rain Total: 0 in.
Time (PDT)Temp. (ºf)Humidity (%)Dew Point (ºf)Barometer (inHG)Wind Speed (mph)Wind DirectionWind Gust (mph)1hr. Precip / Rain Total (in.)Snow Depth
11:13 PM319529.74-9.56wnw12.17--
4:13 PM417533.69-10.43wnw17.38--
2:13 PM428036.29-9.56wnw16.51--
1:13 PM456433.57-10.43wnw17.38--
12:13 PM457236.53-9.56w14.77--
11:13 AM4010040-7.82wnw13.9--
10:13 AM4110041-6.95wnw13.03--
8:13 AM4010040-6.08wnw8.69--
6:13 AM4110041-6.95wnw12.17--
5:13 AM4110041-7.82wnw13.9--
3:13 AM4310043-6.08wsw10.43--
2:13 AM4410044-5.21wsw14.77--
1:13 AM4510045-7.82wsw23.46--
12:13 AM4510045-2.61wnw6.95--
High: 63ºf @2:13 PM    Low: 45ºf @11:13 PM     Approx. Precipitation / Rain Total: 0 in.
Time (PDT)Temp. (ºf)Humidity (%)Dew Point (ºf)Barometer (inHG)Wind Speed (mph)Wind DirectionWind Gust (mph)1hr. Precip / Rain Total (in.)Snow Depth
11:13 PM458340.15-4.34e6.08--
9:13 PM484728.74-4.34ne22.59--
8:13 PM484326.58-15.64e26.94--
7:13 PM504630.04-21.72ene28.68--
5:13 PM555237.7-2.61wsw18.25--
3:13 PM613230.93-5.21wsw13.03--
2:13 PM633131.89-6.95w15.64--
1:13 PM633031.08-7.82se20.86--
12:13 PM622424.8-11.3e21.72--
9:13 AM503422.75-13.03ese18.25--
7:13 AM52189.83-4.34ene8.69--
5:13 AM521911.04-3.48e7.82--
4:13 AM532013.02-3.48nne7.82--
3:13 AM531810.65-5.21e12.17--
1:13 AM561610.46-3.48n16.51--
12:13 AM53145.11-6.08nw19.12--
High: 54ºf @11:13 PM    Low: 53ºf @8:13 PM     Approx. Precipitation / Rain Total: 0 in.
Time (PDT)Temp. (ºf)Humidity (%)Dew Point (ºf)Barometer (inHG)Wind Speed (mph)Wind DirectionWind Gust (mph)1hr. Precip / Rain Total (in.)Snow Depth
11:13 PM541811.47-13.03ne20.86--
9:13 PM542418.04-13.03ene21.72--
8:13 PM534431.68-12.17ene19.12--
Past Weather Disclaimer Note regarding "Approx. Precipitation / Rain Total"

Grapevine CA Past Weather Nearby

More Local Information

Bookmark and Share

Grapevine weather and traffic updates by locals

Write your own Grapevine, California report, forecast, or traffic update:

Please note by clicking on "Post" you acknowledge that you have read the Terms of Service and the Grapevine, CA report and/or forecast you are posting is in compliance with such terms. Be respectful. An inappropriate Grapevine, CA report and/or forecast will be removed by a moderator.